Time;durP1;ratioP1;P1;durP2;ratioP2;P2;SDS_P1;SDS_P2;PMS_P1;PMS_P2;Temp;Humidity;BMP_temperature;BMP_pressure;BME280_temperature;BME280_humidity;BME280_pressure;Samples;Min_cycle;Max_cycle;Signal;HPM_P1;HPM_P2
2023/08/08 00:02:02;;;;;;;3.37;2.37;;;;;;;;;;5096766;28;20719;-64
2023/08/08 00:04:31;;;;;;;2.80;2.13;;;;;;;;;;5079468;28;20675;-65
2023/08/08 00:06:59;;;;;;;4.00;2.37;;;;;;;;;;5080365;28;20708;-62
2023/08/08 00:09:28;;;;;;;2.97;2.03;;;;;;;;;;5098498;28;20681;-63
2023/08/08 00:11:58;;;;;;;2.90;1.90;;;;;;;;;;5096152;28;20740;-63
2023/08/08 00:14:26;;;;;;;2.57;2.37;;;;;;;;;;5092187;28;20705;-63
2023/08/08 00:16:54;;;;;;;5.03;2.30;;;;;;;;;;5098020;28;20710;-63
2023/08/08 00:19:22;;;;;;;2.83;2.30;;;;;;;;;;5098206;28;20708;-63
2023/08/08 00:21:50;;;;;;;5.73;2.70;;;;;;;;;;5097870;28;20736;-62
2023/08/08 00:24:19;;;;;;;2.38;2.17;;;;;;;;;;5097657;28;21074;-65
2023/08/08 00:26:48;;;;;;;1.93;1.73;;;;;;;;;;5077777;28;20622;-63
2023/08/08 00:29:16;;;;;;;4.23;2.80;;;;;;;;;;5060052;28;21058;-63
2023/08/08 00:31:45;;;;;;;4.47;2.87;;;;;;;;;;5078551;28;20737;-64
2023/08/08 00:34:13;;;;;;;3.47;2.60;;;;;;;;;;5092456;28;20659;-63
2023/08/08 00:36:41;;;;;;;3.20;1.90;;;;;;;;;;5080173;28;21244;-63
2023/08/08 00:39:09;;;;;;;3.97;2.23;;;;;;;;;;5080553;28;20762;-63
2023/08/08 00:41:38;;;;;;;3.03;2.83;;;;;;;;;;5097468;28;20689;-62
2023/08/08 00:44:07;;;;;;;7.60;2.47;;;;;;;;;;5098578;28;20719;-63
2023/08/08 00:46:36;;;;;;;2.33;2.22;;;;;;;;;;5080587;28;21249;-63
2023/08/08 00:49:04;;;;;;;2.03;1.93;;;;;;;;;;5097689;28;20685;-63
2023/08/08 00:51:33;;;;;;;5.90;2.30;;;;;;;;;;5068181;28;20721;-62
2023/08/08 00:54:02;;;;;;;2.87;2.40;;;;;;;;;;5067640;28;20689;-62
2023/08/08 00:56:30;;;;;;;5.55;2.20;;;;;;;;;;5097509;28;20743;-61
2023/08/08 00:58:58;;;;;;;3.33;2.10;;;;;;;;;;5097678;28;20278;-62
2023/08/08 01:01:28;;;;;;;2.33;2.10;;;;;;;;;;5078614;28;20697;-62
2023/08/08 01:03:57;;;;;;;2.20;2.03;;;;;;;;;;5096271;28;20728;-62
2023/08/08 01:06:30;;;;;;;7.23;2.70;;;;;;;;;;5096787;28;21011;-63
2023/08/08 01:08:59;;;;;;;3.30;2.47;;;;;;;;;;5080059;28;20659;-62
2023/08/08 01:11:29;;;;;;;2.73;2.53;;;;;;;;;;5090456;28;20822;-62
2023/08/08 01:14:00;;;;;;;3.67;2.40;;;;;;;;;;5079566;28;20718;-63
2023/08/08 01:16:30;;;;;;;7.30;2.20;;;;;;;;;;5097563;28;20294;-64
2023/08/08 01:18:58;;;;;;;3.40;2.30;;;;;;;;;;5096764;28;20678;-64
2023/08/08 01:21:29;;;;;;;2.70;2.50;;;;;;;;;;5079630;28;20600;-64
2023/08/08 01:24:02;;;;;;;2.50;2.30;;;;;;;;;;5079963;28;20680;-64
2023/08/08 01:26:36;;;;;;;4.80;2.80;;;;;;;;;;5097358;28;20262;-64
2023/08/08 01:29:04;;;;;;;2.87;2.67;;;;;;;;;;5100694;28;20667;-64
2023/08/08 01:31:32;;;;;;;2.23;2.13;;;;;;;;;;5101467;28;20663;-62
2023/08/08 01:34:01;;;;;;;3.40;2.73;;;;;;;;;;5101443;28;21242;-63
2023/08/08 01:36:32;;;;;;;3.57;2.57;;;;;;;;;;5101686;28;20679;-63
2023/08/08 01:39:04;;;;;;;2.70;2.50;;;;;;;;;;5101203;28;21202;-63
2023/08/08 01:41:33;;;;;;;2.63;2.23;;;;;;;;;;5082821;28;20675;-62
2023/08/08 01:44:03;;;;;;;4.32;2.80;;;;;;;;;;5100772;28;20707;-64
2023/08/08 01:46:32;;;;;;;4.33;2.67;;;;;;;;;;5100831;28;20701;-63
2023/08/08 01:49:00;;;;;;;3.00;2.70;;;;;;;;;;5098946;28;20672;-64
2023/08/08 01:51:28;;;;;;;3.20;2.60;;;;;;;;;;5101229;28;20704;-63
2023/08/08 01:53:57;;;;;;;3.10;2.90;;;;;;;;;;5100253;28;20700;-64
2023/08/08 01:56:25;;;;;;;4.40;3.13;;;;;;;;;;5082799;28;20725;-68
2023/08/08 01:58:53;;;;;;;3.17;2.73;;;;;;;;;;5100738;28;20699;-65
2023/08/08 02:01:23;;;;;;;3.30;2.10;;;;;;;;;;5082052;28;20683;-64
2023/08/08 02:03:51;;;;;;;4.07;2.83;;;;;;;;;;5079273;28;20703;-63
2023/08/08 02:06:19;;;;;;;4.27;2.93;;;;;;;;;;5061834;28;20680;-64
2023/08/08 02:08:47;;;;;;;4.27;2.20;;;;;;;;;;5079804;28;20743;-64
2023/08/08 02:11:16;;;;;;;3.30;3.00;;;;;;;;;;5062699;28;20722;-64
2023/08/08 02:13:44;;;;;;;3.30;2.87;;;;;;;;;;5080318;28;20647;-64
2023/08/08 02:16:12;;;;;;;4.13;3.20;;;;;;;;;;5080726;28;20682;-63
2023/08/08 02:18:44;;;;;;;2.63;2.47;;;;;;;;;;5079700;28;20628;-64
2023/08/08 02:21:13;;;;;;;3.63;3.30;;;;;;;;;;5080699;28;20613;-63
2023/08/08 02:23:41;;;;;;;2.73;2.53;;;;;;;;;;5080785;28;20680;-64
2023/08/08 02:26:09;;;;;;;2.67;2.50;;;;;;;;;;5088785;28;20687;-63
2023/08/08 02:28:37;;;;;;;7.80;2.30;;;;;;;;;;5099857;28;20675;-63
2023/08/08 02:31:06;;;;;;;3.20;2.50;;;;;;;;;;5094401;28;20701;-64
2023/08/08 02:33:34;;;;;;;4.00;2.80;;;;;;;;;;5098593;28;20690;-64
2023/08/08 02:36:04;;;;;;;4.33;3.37;;;;;;;;;;5098960;28;20673;-64
2023/08/08 02:38:32;;;;;;;6.20;3.17;;;;;;;;;;5091915;28;21057;-64
2023/08/08 02:41:00;;;;;;;2.80;2.60;;;;;;;;;;5100579;28;20697;-63
2023/08/08 02:43:28;;;;;;;4.00;2.90;;;;;;;;;;5081107;28;20687;-64
2023/08/08 02:45:58;;;;;;;5.37;3.03;;;;;;;;;;5081547;28;20634;-63
2023/08/08 02:48:26;;;;;;;3.20;2.97;;;;;;;;;;5081812;28;20681;-64
2023/08/08 02:50:55;;;;;;;7.43;3.13;;;;;;;;;;5099678;28;20688;-64
2023/08/08 02:53:27;;;;;;;4.30;2.60;;;;;;;;;;5081660;28;20663;-64
2023/08/08 02:55:56;;;;;;;2.87;2.57;;;;;;;;;;5081745;28;20712;-66
2023/08/08 02:58:24;;;;;;;3.55;3.15;;;;;;;;;;5069407;28;20726;-63
2023/08/08 03:00:53;;;;;;;3.22;3.03;;;;;;;;;;5061967;28;20264;-64
2023/08/08 03:03:22;;;;;;;5.00;2.80;;;;;;;;;;5097026;28;20274;-63
2023/08/08 03:05:50;;;;;;;2.83;2.50;;;;;;;;;;5098800;28;20274;-64
2023/08/08 03:08:20;;;;;;;3.20;2.90;;;;;;;;;;5081167;28;20271;-64
2023/08/08 03:10:50;;;;;;;3.20;2.90;;;;;;;;;;5061134;28;20322;-64
2023/08/08 03:13:19;;;;;;;6.32;2.90;;;;;;;;;;5076374;28;20275;-64
2023/08/08 03:15:49;;;;;;;2.72;2.50;;;;;;;;;;5081827;28;20247;-64
2023/08/08 03:18:19;;;;;;;2.97;2.75;;;;;;;;;;5080679;28;20215;-65
2023/08/08 03:20:48;;;;;;;2.97;2.75;;;;;;;;;;5099647;28;20254;-63
2023/08/08 03:23:17;;;;;;;4.80;3.05;;;;;;;;;;5079227;28;20709;-63
2023/08/08 03:25:45;;;;;;;6.22;2.90;;;;;;;;;;5078843;28;20283;-64
2023/08/08 03:28:16;;;;;;;3.10;2.90;;;;;;;;;;5087767;28;20613;-65
2023/08/08 03:30:44;;;;;;;3.42;3.13;;;;;;;;;;5099184;28;20306;-62
2023/08/08 03:33:14;;;;;;;3.25;2.40;;;;;;;;;;5081335;28;20279;-62
2023/08/08 03:35:44;;;;;;;2.65;2.45;;;;;;;;;;5099254;28;20275;-62
2023/08/08 03:38:12;;;;;;;6.32;4.57;;;;;;;;;;5098771;28;20306;-62
2023/08/08 03:40:40;;;;;;;3.70;3.05;;;;;;;;;;5088593;28;20326;-62
2023/08/08 03:43:09;;;;;;;5.65;2.70;;;;;;;;;;5061178;28;20259;-62
2023/08/08 03:45:39;;;;;;;3.83;3.45;;;;;;;;;;5060794;28;20750;-62
2023/08/08 03:48:07;;;;;;;5.30;3.13;;;;;;;;;;5059874;28;20309;-62
2023/08/08 03:50:35;;;;;;;4.25;2.50;;;;;;;;;;5077728;28;20267;-62
2023/08/08 03:53:04;;;;;;;3.35;3.05;;;;;;;;;;5078888;28;20287;-62
2023/08/08 03:55:34;;;;;;;11.73;3.80;;;;;;;;;;5075198;28;20672;-62
2023/08/08 03:58:02;;;;;;;3.38;3.08;;;;;;;;;;5079095;28;20590;-62
2023/08/08 04:00:31;;;;;;;3.77;2.60;;;;;;;;;;5062937;28;20270;-62
2023/08/08 04:03:00;;;;;;;3.75;3.38;;;;;;;;;;5097466;28;20625;-63
2023/08/08 04:05:29;;;;;;;5.28;3.33;;;;;;;;;;5076690;28;20196;-63
2023/08/08 04:07:57;;;;;;;3.28;3.03;;;;;;;;;;5097557;28;20267;-63
2023/08/08 04:10:25;;;;;;;3.08;2.83;;;;;;;;;;5097680;28;20326;-63
2023/08/08 04:12:53;;;;;;;3.00;2.80;;;;;;;;;;5098158;28;20721;-63
2023/08/08 04:15:22;;;;;;;3.70;3.07;;;;;;;;;;5085390;28;20715;-62
2023/08/08 04:17:50;;;;;;;5.18;3.08;;;;;;;;;;5084262;28;20732;-62
2023/08/08 04:20:20;;;;;;;3.03;2.83;;;;;;;;;;5096652;28;20278;-63
2023/08/08 04:22:48;;;;;;;4.32;2.78;;;;;;;;;;5098129;28;20708;-65
2023/08/08 04:25:16;;;;;;;3.75;2.80;;;;;;;;;;5063099;28;20274;-63
2023/08/08 04:27:45;;;;;;;4.70;2.95;;;;;;;;;;5093884;28;20282;-63
2023/08/08 04:30:13;;;;;;;3.07;2.87;;;;;;;;;;5096645;28;20436;-64
2023/08/08 04:32:41;;;;;;;6.05;3.65;;;;;;;;;;5098481;28;20691;-63
2023/08/08 04:35:09;;;;;;;2.80;2.65;;;;;;;;;;5090911;28;20290;-63
2023/08/08 04:37:39;;;;;;;2.50;2.40;;;;;;;;;;5077285;28;20302;-64
2023/08/08 04:40:09;;;;;;;3.30;3.00;;;;;;;;;;5098031;28;20262;-63
2023/08/08 04:42:37;;;;;;;3.17;2.88;;;;;;;;;;5097066;28;20282;-63
2023/08/08 04:45:06;;;;;;;3.55;3.25;;;;;;;;;;5096723;28;20290;-62
2023/08/08 04:47:34;;;;;;;3.42;3.20;;;;;;;;;;5096312;28;20259;-62
2023/08/08 04:50:02;;;;;;;5.37;4.00;;;;;;;;;;5096812;28;20776;-62
2023/08/08 04:52:33;;;;;;;3.60;2.63;;;;;;;;;;5097264;28;20704;-62
2023/08/08 04:55:02;;;;;;;8.35;3.25;;;;;;;;;;5098096;28;20274;-63
2023/08/08 04:57:30;;;;;;;3.22;3.00;;;;;;;;;;5097025;28;20638;-64
2023/08/08 05:00:01;;;;;;;4.20;3.90;;;;;;;;;;5097299;28;20199;-62
2023/08/08 05:02:29;;;;;;;6.07;3.75;;;;;;;;;;5097424;28;20689;-65
2023/08/08 05:04:57;;;;;;;4.50;3.33;;;;;;;;;;5092160;28;20286;-63
2023/08/08 05:07:25;;;;;;;4.13;3.72;;;;;;;;;;5065845;28;20606;-62
2023/08/08 05:09:54;;;;;;;3.28;2.95;;;;;;;;;;5101337;28;20341;-64
2023/08/08 05:12:23;;;;;;;3.57;3.27;;;;;;;;;;5092319;28;20286;-62
2023/08/08 05:14:51;;;;;;;3.77;3.43;;;;;;;;;;5096118;28;20744;-64
2023/08/08 05:17:19;;;;;;;4.33;2.97;;;;;;;;;;5101298;28;20669;-65
2023/08/08 05:19:48;;;;;;;5.57;3.78;;;;;;;;;;5081057;28;21095;-64
2023/08/08 05:22:16;;;;;;;6.90;3.70;;;;;;;;;;5100949;28;20275;-65
2023/08/08 05:24:44;;;;;;;3.30;2.80;;;;;;;;;;5100405;28;20688;-65
2023/08/08 05:27:12;;;;;;;4.20;3.20;;;;;;;;;;5101960;28;20659;-64
2023/08/08 05:29:42;;;;;;;7.35;3.00;;;;;;;;;;5101237;28;20770;-64
2023/08/08 05:32:10;;;;;;;3.05;2.85;;;;;;;;;;5100256;28;20283;-63
2023/08/08 05:34:38;;;;;;;13.60;3.17;;;;;;;;;;5100943;28;20624;-64
2023/08/08 05:37:07;;;;;;;2.70;2.50;;;;;;;;;;5101960;28;20688;-64
2023/08/08 05:39:35;;;;;;;4.27;2.70;;;;;;;;;;5102633;28;20755;-66
2023/08/08 05:42:03;;;;;;;12.47;3.10;;;;;;;;;;5097751;28;20694;-65
2023/08/08 05:44:31;;;;;;;3.23;3.03;;;;;;;;;;5100622;28;20712;-64
2023/08/08 05:47:01;;;;;;;5.57;3.00;;;;;;;;;;5097820;28;21033;-65
2023/08/08 05:49:29;;;;;;;5.10;3.10;;;;;;;;;;5087349;28;21238;-64
2023/08/08 05:51:57;;;;;;;5.20;3.13;;;;;;;;;;5088957;28;20664;-65
2023/08/08 05:54:25;;;;;;;2.93;2.60;;;;;;;;;;5099608;28;20696;-63
2023/08/08 05:56:54;;;;;;;2.97;2.67;;;;;;;;;;5102378;28;21018;-64
2023/08/08 05:59:22;;;;;;;4.60;3.20;;;;;;;;;;5101556;28;20755;-65
2023/08/08 06:01:50;;;;;;;3.50;3.17;;;;;;;;;;5085050;28;20689;-65
2023/08/08 06:04:20;;;;;;;3.60;2.73;;;;;;;;;;5102452;28;20659;-64
2023/08/08 06:06:49;;;;;;;2.60;2.27;;;;;;;;;;5113336;28;20636;-68
2023/08/08 06:09:17;;;;;;;3.10;2.80;;;;;;;;;;5116437;28;20604;-68
2023/08/08 06:11:45;;;;;;;3.27;2.50;;;;;;;;;;5109832;28;20660;-68
2023/08/08 06:18:27;;;;;;;2.70;2.47;;;;;;;;;;5100598;28;20624;-67
2023/08/08 06:20:57;;;;;;;3.00;2.80;;;;;;;;;;5115474;28;20653;-66
2023/08/08 06:23:25;;;;;;;4.73;2.53;;;;;;;;;;5112012;28;20678;-65
2023/08/08 06:25:53;;;;;;;3.90;2.33;;;;;;;;;;5112664;28;20623;-67
2023/08/08 06:28:21;;;;;;;4.90;3.43;;;;;;;;;;5115637;28;20625;-65
2023/08/08 06:30:49;;;;;;;2.30;2.20;;;;;;;;;;5114757;28;20618;-66
2023/08/08 06:33:18;;;;;;;3.00;2.23;;;;;;;;;;5096484;28;20671;-66
2023/08/08 06:35:46;;;;;;;2.27;2.07;;;;;;;;;;5113730;28;20631;-65
2023/08/08 06:38:15;;;;;;;2.07;1.97;;;;;;;;;;5114649;28;20640;-65
2023/08/08 06:40:44;;;;;;;2.87;2.30;;;;;;;;;;5113176;28;21198;-66
2023/08/08 06:43:12;;;;;;;2.77;2.13;;;;;;;;;;5115781;28;20641;-66
2023/08/08 06:45:40;;;;;;;2.37;2.27;;;;;;;;;;5115180;28;20647;-64
2023/08/08 06:48:08;;;;;;;4.87;2.03;;;;;;;;;;5113645;28;20633;-68
2023/08/08 06:50:37;;;;;;;2.07;1.90;;;;;;;;;;5112423;28;20636;-64
2023/08/08 06:53:05;;;;;;;2.63;2.17;;;;;;;;;;5110118;28;20656;-64
2023/08/08 06:55:35;;;;;;;2.33;2.13;;;;;;;;;;5114972;28;20641;-62
2023/08/08 06:58:03;;;;;;;1.80;1.70;;;;;;;;;;5114132;28;20625;-64
2023/08/08 07:00:31;;;;;;;2.17;1.83;;;;;;;;;;5098469;28;21542;-63
2023/08/08 07:02:59;;;;;;;1.80;1.70;;;;;;;;;;5096733;28;21265;-64
2023/08/08 07:05:29;;;;;;;2.30;2.10;;;;;;;;;;5079667;28;20687;-63
2023/08/08 07:07:57;;;;;;;2.30;1.57;;;;;;;;;;5091355;28;20751;-62
2023/08/08 07:10:25;;;;;;;1.90;1.80;;;;;;;;;;5097775;28;21309;-62
2023/08/08 07:12:55;;;;;;;2.20;2.00;;;;;;;;;;5079518;28;20694;-62
2023/08/08 07:15:23;;;;;;;2.13;1.97;;;;;;;;;;5078902;28;20668;-62
2023/08/08 07:17:52;;;;;;;1.93;1.83;;;;;;;;;;5077143;28;20674;-65
2023/08/08 07:20:20;;;;;;;2.60;1.73;;;;;;;;;;5078066;28;20658;-62
2023/08/08 07:22:48;;;;;;;1.87;1.77;;;;;;;;;;5082270;28;20659;-63
2023/08/08 07:25:16;;;;;;;1.90;1.80;;;;;;;;;;5096987;28;20699;-63
2023/08/08 07:27:44;;;;;;;3.20;2.07;;;;;;;;;;5097968;28;20696;-65
2023/08/08 07:30:14;;;;;;;2.43;2.33;;;;;;;;;;5098311;28;20675;-63
2023/08/08 07:32:42;;;;;;;2.73;2.43;;;;;;;;;;5098444;28;20678;-65
2023/08/08 07:35:11;;;;;;;2.47;2.27;;;;;;;;;;5098278;28;20683;-63
2023/08/08 07:37:39;;;;;;;2.13;2.03;;;;;;;;;;5099475;28;21126;-63
2023/08/08 07:40:15;;;;;;;4.20;2.10;;;;;;;;;;5100651;28;20713;-64
2023/08/08 07:42:43;;;;;;;2.37;2.20;;;;;;;;;;5118302;28;20678;-64
2023/08/08 07:45:11;;;;;;;2.67;2.47;;;;;;;;;;5118890;28;20680;-63
2023/08/08 07:47:41;;;;;;;2.80;2.60;;;;;;;;;;5100216;28;20586;-63
2023/08/08 07:50:10;;;;;;;2.80;2.70;;;;;;;;;;5103872;28;20716;-63
2023/08/08 07:52:39;;;;;;;5.23;3.07;;;;;;;;;;5079495;28;20689;-63
2023/08/08 07:55:07;;;;;;;6.93;2.90;;;;;;;;;;5079286;28;20696;-63
2023/08/08 07:57:36;;;;;;;3.50;3.23;;;;;;;;;;5097253;28;20704;-64
2023/08/08 08:00:11;;;;;;;3.90;3.50;;;;;;;;;;5079321;28;20736;-63
2023/08/08 08:02:45;;;;;;;3.90;3.60;;;;;;;;;;5078169;28;20684;-68
2023/08/08 08:05:13;;;;;;;3.20;3.10;;;;;;;;;;5096043;28;20686;-67
2023/08/08 08:07:43;;;;;;;5.60;3.20;;;;;;;;;;5095730;28;20694;-64
2023/08/08 08:10:13;;;;;;;3.90;3.60;;;;;;;;;;5096730;28;20716;-64
2023/08/08 08:12:41;;;;;;;4.60;4.20;;;;;;;;;;5080255;28;20737;-65
2023/08/08 08:15:11;;;;;;;3.60;3.40;;;;;;;;;;5076693;28;21196;-63
2023/08/08 08:17:39;;;;;;;4.23;3.30;;;;;;;;;;5076164;28;20711;-63
2023/08/08 08:20:12;;;;;;;3.53;3.33;;;;;;;;;;5075785;28;20723;-63
2023/08/08 08:22:40;;;;;;;4.17;3.70;;;;;;;;;;5075994;28;20650;-63
2023/08/08 08:25:09;;;;;;;3.60;3.40;;;;;;;;;;5076228;28;20708;-63
2023/08/08 08:27:37;;;;;;;5.70;3.60;;;;;;;;;;5075764;28;20701;-63
2023/08/08 08:30:06;;;;;;;4.20;3.53;;;;;;;;;;5075537;28;21045;-63
2023/08/08 08:32:35;;;;;;;6.20;4.93;;;;;;;;;;5082404;28;20666;-63
2023/08/08 08:35:06;;;;;;;4.70;4.43;;;;;;;;;;5077839;28;20636;-63
2023/08/08 08:37:35;;;;;;;4.40;4.13;;;;;;;;;;5075600;28;20685;-63
2023/08/08 08:40:04;;;;;;;4.37;4.20;;;;;;;;;;5075702;28;20664;-63
2023/08/08 08:42:33;;;;;;;4.70;4.30;;;;;;;;;;5094428;28;20683;-64
2023/08/08 08:45:03;;;;;;;4.70;4.40;;;;;;;;;;5096598;28;20702;-64
2023/08/08 08:47:33;;;;;;;4.50;4.30;;;;;;;;;;5096320;28;20688;-64
2023/08/08 08:50:03;;;;;;;4.83;4.57;;;;;;;;;;5091884;28;21054;-65
2023/08/08 08:52:32;;;;;;;4.20;4.00;;;;;;;;;;5062723;28;20672;-64
2023/08/08 08:55:02;;;;;;;5.47;5.00;;;;;;;;;;5096462;28;21332;-64
2023/08/08 08:57:32;;;;;;;4.70;4.40;;;;;;;;;;5095288;28;20639;-64
2023/08/08 09:00:00;;;;;;;5.10;4.80;;;;;;;;;;5095798;28;20621;-64
2023/08/08 09:02:28;;;;;;;8.50;5.77;;;;;;;;;;5099655;28;20652;-65
2023/08/08 09:04:57;;;;;;;5.77;5.57;;;;;;;;;;5103473;28;20685;-67
2023/08/08 09:07:27;;;;;;;6.30;6.00;;;;;;;;;;5104045;28;20677;-65
2023/08/08 09:09:56;;;;;;;7.83;7.33;;;;;;;;;;5098081;28;20765;-65
2023/08/08 09:12:26;;;;;;;6.33;6.03;;;;;;;;;;5097423;28;20989;-65
2023/08/08 09:14:57;;;;;;;8.03;7.43;;;;;;;;;;5095793;28;20720;-65
2023/08/08 09:17:27;;;;;;;8.77;8.37;;;;;;;;;;5102822;28;20661;-65
2023/08/08 09:19:55;;;;;;;9.33;9.00;;;;;;;;;;5103892;28;20741;-70
2023/08/08 09:22:24;;;;;;;9.00;8.40;;;;;;;;;;5085440;28;20688;-66
2023/08/08 09:24:52;;;;;;;9.97;9.20;;;;;;;;;;5102786;28;20716;-65
2023/08/08 09:27:20;;;;;;;7.40;7.20;;;;;;;;;;5102616;28;21107;-65
2023/08/08 09:29:50;;;;;;;8.03;7.73;;;;;;;;;;5102227;28;20730;-67
2023/08/08 09:32:19;;;;;;;8.23;7.83;;;;;;;;;;5095000;28;20700;-66
2023/08/08 09:34:47;;;;;;;8.40;7.90;;;;;;;;;;5099329;28;20680;-66
2023/08/08 09:37:16;;;;;;;7.90;7.40;;;;;;;;;;5095368;28;21185;-67
2023/08/08 09:39:45;;;;;;;10.20;7.97;;;;;;;;;;5103970;28;20687;-67
2023/08/08 09:42:13;;;;;;;8.77;8.33;;;;;;;;;;5097435;28;20673;-64
2023/08/08 09:44:41;;;;;;;8.83;8.43;;;;;;;;;;5098664;28;20700;-64
2023/08/08 09:47:16;;;;;;;8.83;8.33;;;;;;;;;;5098468;28;20758;-63
2023/08/08 09:49:44;;;;;;;9.50;9.00;;;;;;;;;;5099759;28;20644;-64
2023/08/08 09:52:13;;;;;;;9.07;8.57;;;;;;;;;;5099350;28;20628;-63
2023/08/08 09:54:41;;;;;;;8.80;8.40;;;;;;;;;;5100926;28;21056;-64
2023/08/08 09:57:10;;;;;;;8.90;8.50;;;;;;;;;;5098376;28;20688;-63
2023/08/08 09:59:38;;;;;;;8.90;8.50;;;;;;;;;;5096880;28;20744;-63
2023/08/08 10:02:06;;;;;;;9.03;8.63;;;;;;;;;;5101060;28;21054;-64
2023/08/08 10:04:36;;;;;;;8.70;8.30;;;;;;;;;;5092435;28;20700;-67
2023/08/08 10:07:04;;;;;;;8.87;8.47;;;;;;;;;;5081748;28;20678;-64
2023/08/08 10:09:33;;;;;;;9.63;9.10;;;;;;;;;;5101039;28;20732;-64
2023/08/08 10:12:02;;;;;;;9.00;8.57;;;;;;;;;;5093745;28;20728;-63
2023/08/08 10:14:31;;;;;;;10.17;9.27;;;;;;;;;;5101500;28;20688;-64
2023/08/08 10:16:59;;;;;;;10.00;9.67;;;;;;;;;;5087436;28;20689;-63
2023/08/08 10:19:27;;;;;;;10.73;9.77;;;;;;;;;;5081174;28;20708;-64
2023/08/08 10:22:02;;;;;;;10.10;9.70;;;;;;;;;;5100379;28;21121;-63
2023/08/08 10:24:34;;;;;;;10.30;9.80;;;;;;;;;;5079034;28;21028;-63
2023/08/08 10:27:04;;;;;;;10.27;9.87;;;;;;;;;;5078581;28;20665;-64
2023/08/08 10:29:33;;;;;;;10.60;10.00;;;;;;;;;;5088156;28;20707;-65
2023/08/08 10:32:03;;;;;;;10.50;10.10;;;;;;;;;;5101539;28;20765;-64
2023/08/08 10:34:39;;;;;;;10.93;10.40;;;;;;;;;;5082857;28;21111;-64
2023/08/08 10:37:11;;;;;;;10.60;10.10;;;;;;;;;;5101458;28;20652;-64
2023/08/08 10:39:39;;;;;;;10.90;10.40;;;;;;;;;;5101823;28;20712;-64
2023/08/08 10:42:08;;;;;;;11.30;10.70;;;;;;;;;;5082995;28;20794;-64
2023/08/08 10:44:43;;;;;;;11.20;10.70;;;;;;;;;;5101593;28;20711;-64
2023/08/08 10:47:12;;;;;;;10.80;10.40;;;;;;;;;;5101736;28;20683;-63
2023/08/08 10:49:43;;;;;;;11.47;11.03;;;;;;;;;;5093877;28;20704;-64
2023/08/08 10:52:15;;;;;;;10.50;10.17;;;;;;;;;;5081027;28;20681;-65
2023/08/08 10:54:54;;;;;;;10.87;10.47;;;;;;;;;;5093543;28;20612;-64
2023/08/08 10:57:26;;;;;;;11.30;10.80;;;;;;;;;;5099922;28;20680;-65
2023/08/08 10:59:54;;;;;;;11.77;11.07;;;;;;;;;;5100064;28;20665;-64
2023/08/08 11:02:23;;;;;;;11.30;10.73;;;;;;;;;;5100187;28;20752;-64
2023/08/08 11:04:52;;;;;;;11.70;11.00;;;;;;;;;;5098664;28;21500;-64
2023/08/08 11:07:21;;;;;;;11.40;11.00;;;;;;;;;;5100047;28;20700;-64
2023/08/08 11:09:50;;;;;;;11.67;11.17;;;;;;;;;;5100019;28;20732;-64
2023/08/08 11:12:18;;;;;;;11.37;10.90;;;;;;;;;;5075326;28;20781;-63
2023/08/08 11:14:46;;;;;;;11.63;11.13;;;;;;;;;;5079711;28;20713;-63
2023/08/08 11:17:15;;;;;;;12.20;11.70;;;;;;;;;;5080168;28;21054;-63
2023/08/08 11:19:44;;;;;;;11.63;11.23;;;;;;;;;;5079058;28;20701;-64
2023/08/08 11:22:12;;;;;;;11.90;11.20;;;;;;;;;;5079642;28;20733;-63
2023/08/08 11:24:41;;;;;;;11.70;11.13;;;;;;;;;;5078943;28;20693;-63
2023/08/08 11:27:10;;;;;;;12.47;11.97;;;;;;;;;;5061376;28;20752;-63
2023/08/08 11:29:38;;;;;;;12.47;11.97;;;;;;;;;;5078508;28;20709;-63
2023/08/08 11:32:07;;;;;;;12.47;11.97;;;;;;;;;;5081687;28;20712;-63
2023/08/08 11:34:36;;;;;;;12.80;12.20;;;;;;;;;;5101199;28;20719;-63
2023/08/08 11:37:04;;;;;;;12.37;11.70;;;;;;;;;;5101067;28;20700;-64
2023/08/08 11:39:32;;;;;;;12.97;12.47;;;;;;;;;;5101723;28;20673;-63
2023/08/08 11:42:02;;;;;;;13.00;12.00;;;;;;;;;;5098647;28;20747;-64
2023/08/08 11:44:32;;;;;;;13.07;12.47;;;;;;;;;;5091899;28;21246;-63
2023/08/08 11:47:01;;;;;;;13.03;12.43;;;;;;;;;;5098622;28;20707;-64
2023/08/08 11:49:29;;;;;;;12.63;12.23;;;;;;;;;;5096968;28;20715;-63
2023/08/08 11:51:59;;;;;;;13.43;12.63;;;;;;;;;;5098031;28;21058;-63
2023/08/08 11:54:28;;;;;;;12.30;11.90;;;;;;;;;;5098478;28;20669;-63
2023/08/08 11:56:57;;;;;;;13.17;12.67;;;;;;;;;;5097268;28;20708;-63
2023/08/08 11:59:26;;;;;;;13.00;12.50;;;;;;;;;;5098655;28;20665;-64
2023/08/08 12:01:54;;;;;;;12.90;12.40;;;;;;;;;;5096612;28;20741;-63
2023/08/08 12:04:23;;;;;;;13.83;13.13;;;;;;;;;;5096602;28;20677;-64
2023/08/08 12:06:51;;;;;;;13.47;12.87;;;;;;;;;;5098047;28;21241;-63
2023/08/08 12:09:20;;;;;;;13.70;13.10;;;;;;;;;;5096958;28;20677;-63
2023/08/08 12:11:48;;;;;;;13.87;13.27;;;;;;;;;;5087265;28;20730;-64
2023/08/08 12:14:16;;;;;;;13.10;12.60;;;;;;;;;;5080551;28;20697;-64
2023/08/08 12:16:47;;;;;;;13.60;13.00;;;;;;;;;;5097921;28;20704;-63
2023/08/08 12:19:20;;;;;;;13.40;12.90;;;;;;;;;;5096290;28;20688;-66
2023/08/08 12:21:49;;;;;;;13.70;13.20;;;;;;;;;;5097497;28;20625;-64
2023/08/08 12:24:17;;;;;;;13.60;13.10;;;;;;;;;;5097643;28;20697;-63
2023/08/08 12:26:45;;;;;;;13.67;13.17;;;;;;;;;;5098534;28;20676;-66
2023/08/08 12:29:13;;;;;;;13.80;13.20;;;;;;;;;;5097311;28;20720;-63
2023/08/08 12:31:42;;;;;;;14.07;13.50;;;;;;;;;;5097774;28;20709;-64
2023/08/08 12:34:11;;;;;;;14.50;13.90;;;;;;;;;;5097987;28;20704;-63
2023/08/08 12:36:40;;;;;;;13.07;12.57;;;;;;;;;;5079812;28;20689;-64
2023/08/08 12:39:10;;;;;;;14.10;13.50;;;;;;;;;;5098626;28;20700;-63
2023/08/08 12:41:39;;;;;;;13.83;13.33;;;;;;;;;;5094850;28;20626;-65
2023/08/08 12:44:07;;;;;;;14.60;13.90;;;;;;;;;;5098746;28;20613;-65
2023/08/08 12:46:36;;;;;;;13.50;13.00;;;;;;;;;;5099149;28;20629;-64
2023/08/08 12:49:05;;;;;;;14.13;13.43;;;;;;;;;;5099356;28;20927;-65
2023/08/08 12:51:35;;;;;;;14.30;13.70;;;;;;;;;;5098286;28;20696;-64
2023/08/08 12:54:03;;;;;;;13.70;13.20;;;;;;;;;;5096025;28;20700;-64
2023/08/08 12:56:31;;;;;;;14.30;13.50;;;;;;;;;;5096755;28;21057;-66
2023/08/08 12:58:59;;;;;;;13.97;13.23;;;;;;;;;;5097427;28;20696;-64
2023/08/08 13:01:27;;;;;;;15.20;13.70;;;;;;;;;;5097538;28;20732;-66
2023/08/08 13:03:56;;;;;;;13.87;13.37;;;;;;;;;;5097481;28;20709;-63
2023/08/08 13:06:24;;;;;;;14.70;14.00;;;;;;;;;;5096243;28;20700;-66
2023/08/08 13:08:53;;;;;;;15.10;14.40;;;;;;;;;;5100543;28;20708;-65
2023/08/08 13:11:22;;;;;;;14.80;14.20;;;;;;;;;;5086249;28;20669;-65
2023/08/08 13:13:50;;;;;;;14.10;13.60;;;;;;;;;;5084235;28;20720;-65
2023/08/08 13:16:18;;;;;;;13.77;13.20;;;;;;;;;;5097195;28;21245;-65
2023/08/08 13:18:46;;;;;;;14.27;13.77;;;;;;;;;;5098572;28;21036;-65
2023/08/08 13:21:15;;;;;;;14.83;14.23;;;;;;;;;;5079827;28;20732;-66
2023/08/08 13:23:43;;;;;;;14.30;13.70;;;;;;;;;;5098733;28;20715;-65
2023/08/08 13:26:12;;;;;;;14.13;13.53;;;;;;;;;;5086606;28;20688;-65
2023/08/08 13:28:41;;;;;;;14.73;14.03;;;;;;;;;;5104650;28;20685;-64
2023/08/08 13:31:10;;;;;;;14.90;14.30;;;;;;;;;;5102696;28;20707;-64
2023/08/08 13:33:38;;;;;;;14.57;13.97;;;;;;;;;;5102163;28;20669;-64
2023/08/08 13:36:06;;;;;;;15.20;14.50;;;;;;;;;;5101988;28;20632;-65
2023/08/08 13:38:35;;;;;;;15.23;14.53;;;;;;;;;;5101623;28;20664;-64
2023/08/08 13:41:03;;;;;;;15.23;14.43;;;;;;;;;;5099964;28;20771;-64
2023/08/08 13:43:33;;;;;;;15.00;14.40;;;;;;;;;;5100724;28;20784;-65
2023/08/08 13:46:03;;;;;;;14.77;14.17;;;;;;;;;;5099762;28;20716;-64
2023/08/08 13:48:31;;;;;;;14.70;14.10;;;;;;;;;;5101793;28;20661;-64
2023/08/08 13:50:59;;;;;;;15.13;14.30;;;;;;;;;;5099816;28;20684;-64
2023/08/08 13:53:28;;;;;;;14.53;13.93;;;;;;;;;;5102376;28;20713;-65
2023/08/08 13:55:56;;;;;;;14.27;13.73;;;;;;;;;;5100814;28;20711;-64
2023/08/08 13:58:24;;;;;;;14.87;14.23;;;;;;;;;;5102165;28;20700;-64
2023/08/08 14:00:53;;;;;;;15.23;14.53;;;;;;;;;;5084364;28;20681;-64
2023/08/08 14:03:22;;;;;;;15.00;14.40;;;;;;;;;;5114191;28;20727;-64
2023/08/08 14:05:52;;;;;;;14.90;14.30;;;;;;;;;;5102508;28;20706;-65
2023/08/08 14:08:21;;;;;;;14.80;14.20;;;;;;;;;;5124779;28;20661;-64
2023/08/08 14:10:49;;;;;;;14.97;14.37;;;;;;;;;;5127395;28;21030;-64
2023/08/08 14:13:18;;;;;;;14.43;13.83;;;;;;;;;;5128809;28;20620;-65
2023/08/08 14:15:47;;;;;;;15.20;14.50;;;;;;;;;;5116441;28;20598;-65
2023/08/08 14:18:16;;;;;;;14.87;14.27;;;;;;;;;;5107946;28;21206;-68
2023/08/08 14:20:45;;;;;;;15.10;14.50;;;;;;;;;;5108098;28;20692;-64
2023/08/08 14:23:13;;;;;;;16.63;15.13;;;;;;;;;;5108632;28;20732;-64
2023/08/08 14:25:41;;;;;;;15.30;14.60;;;;;;;;;;5108410;28;20648;-64
2023/08/08 14:28:10;;;;;;;14.43;13.73;;;;;;;;;;5108197;28;20649;-65
2023/08/08 14:30:38;;;;;;;14.90;14.00;;;;;;;;;;5106090;28;20677;-64
2023/08/08 14:33:06;;;;;;;16.07;15.10;;;;;;;;;;5106047;28;20693;-66
2023/08/08 14:35:36;;;;;;;14.90;14.30;;;;;;;;;;5105065;28;20680;-65
2023/08/08 14:38:04;;;;;;;14.40;13.80;;;;;;;;;;5107079;28;20688;-65
2023/08/08 14:40:34;;;;;;;15.43;14.53;;;;;;;;;;5106809;28;20684;-65
2023/08/08 14:43:02;;;;;;;15.10;14.40;;;;;;;;;;5107271;28;20720;-64
2023/08/08 14:45:31;;;;;;;14.50;13.90;;;;;;;;;;5106664;28;20649;-65
2023/08/08 14:47:59;;;;;;;14.43;13.83;;;;;;;;;;5103960;28;20692;-64
2023/08/08 14:50:27;;;;;;;15.20;14.20;;;;;;;;;;5103140;28;20692;-65